Airfield :
LOGIN :

Register | Disclaimer

   EN    FR    IT 

 










Legend :    VFR   Marginal VFR   IFR   Intensive IFR   Very Intensive IFR
Visi :
Ceiling :
>= 8 km
>= 3000ft
5 to 8 km
1000 to 3000 ft
1500m to 5 km
500 to 1000 ft
800 to 1500m
200 to 500 ft
< 800m
< 200 ft
Symbols :   Thunderstorms  Fog  Heavy snow  Heavy precipitations  Wind > 20 kt
SIGMETs :     Misc.  Thunderstorms  Icing  Turbulence  Mountain Waves  Volcanic Ashes






- Airport Elevation : 242 ft
- IATA code : DUB


EIDW - Dublin

CURRENT METAR :
  • 231730Z 19008KT 160V230 9999 -RA FEW020 BKN040 BKN100 12/08 Q1003 NOSIG

EXPIRED METARs :
  • 231700Z 17008KT 130V210 9999 -RA FEW020 BKN030 BKN100 12/07 Q1003 NOSIG
  • 231630Z 18009KT 150V230 9999 -RA FEW023 BKN030 BKN100 12/07 Q1004 NOSIG
  • 231600Z 17009KT 140V200 9999 -RA FEW023 BKN030 BKN100 13/07 Q1004 NOSIG
  • 231530Z 19013KT 160V220 9999 FEW023 BKN040 BKN100 13/07 Q1004 NOSIG
  • 231500Z 19009KT 150V240 9999 FEW023 BKN030 BKN200 13/06 Q1005 NOSIG

TAF TAF EIDW
Valid from the 23 at 18:00 until the 24 at 18:00 UTC


231700Z 2318/2418 19014KT 9999 FEW020 BKN030
TEMPO 2318/2401 5000 -RA BKN012
BECMG 2320/2322 21012KT
BECMG 2400/2402 24008KT
BECMG 2410/2412 24013KT
TEMPO 2413/2416 26015G26KT -SHRA SCT018CB
BECMG 2416/2418 27008KT



MET'MAP, your aeronautical weather chart ! - Copyright ORBIFLY December 2007 - Disclaimer

ORBIFLY MET'MAP TEAM :

Programming & Development : Alexandra Zaïnal
Concept & Development : Baudouin d'Aumeries
Co-Development & Prog : Marc-Olivier Méhu
Technical & hardware support : Manuel Goepfert

Contact : metmap@orbifly.com




SOURCES & CREDITS :

   NOAA